Aeroporto :
LOGIN :

Iscrizione | Disclaimer

   EN    FR    IT 

 










Sommario :    VFR   VFR Marginale   IFR   IFR Intensivo   IFR Molto Intensivo
Visibilità : 
Base nubi : 
>= 8 km
>= 3000ft
5 / 8 km
1000 / 3000 ft
1500m / 5 km
500 / 1000 ft
800 / 1500m
200 / 500 ft
< 800m
< 200 ft
Simboli :   Temporali  Nebbia  Neve Forte  Precipitazioni Forti  Vento > 20 kt
SIGMETs :   Varie  Temporali  Ghiacco  Turbolenza  Onda orograficha  Ceneri Vulcaniche







- Altitudine del aeroporto : 160 ft
- Codice IATA : FMO


EDDG - Münster Osnabrück Int.

ULTIMO METAR :
  • 192150Z 30004KT CAVOK 15/11 Q1005 NOSIG

METARs OBSOLETI :
  • 192120Z 29005KT CAVOK 15/11 Q1005 NOSIG
  • 192050Z 28005KT CAVOK 15/11 Q1005 NOSIG
  • 192020Z 32004KT 290V360 CAVOK 16/11 Q1005 NOSIG
  • 191950Z 31003KT CAVOK 16/11 Q1004 NOSIG
  • 191920Z 33004KT CAVOK 16/11 Q1004 NOSIG

TAF TAF EDDG
Valido dal 19 a 18 ore il 20 a 18 ore UTC


191700Z 1918/2018 22008KT 9999 SCT040
BECMG 1918/1921 VRB03KT
BECMG 2000/2003 3000 BR
PROB30
TEMPO 2001/2006 0700 BCFG BKN002
BECMG 2006/2009 36006KT 9999
PROB30
TEMPO 2012/2018 TSRA BKN025CB
Nessun NOTAM noto per questo aeroporto.
2 SIGMETs conosciuti per la FIR Langen (EDGG) :
 
Temporali affogati
EDGG SIGMET 2 VALID 191935/192200 EDZF
EDGG LANGEN FIR EMBD TS OBS WI N4842 E00930 - N4733 E00935 - N4746 E00852 - N4732 E00728 - N4832 E00740 - N4842 E00930 TOP FL330 MOV WSW WKN=
Temporali affogati
EDGG SIGMET 1 VALID 192200/200100 EDZF
EDGG LANGEN FIR EMBD TS OBS WI N4908 E00939 - N4804 E00932 - N4734 E00741 - N4749 E00727 - N4858 E00759 - N4908 E00939 TOP FL320 MOV WSW WKN=



MetMap, La meteo Aeronautica in un colpo d'occhio ! - Copyright ORBIFLY Dicembre 2007 - Disclaimer

ORBIFLY MET'MAP TEAM :

Programmazione e sviluppo : Alexandra Zaïnal
Concezione e sviluppo : Baudouin d'Aumeries
Co-Programmazione e sviluppo : Marc-Olivier Méhu
Supporto tecnico e logistico : Manuel Goepfert
Aiuto per la traduzione : Arnaldo La Scala

Contatto : metmap@orbifly.com




FONTI E CREDITI :

   NOAA